sensor_id;sensor_type;location;lat;lon;timestamp;pressure;altitude;pressure_sealevel;temperature;humidity
50774;BME280;36745;48.544;8.918;2023-05-08T00:01:11;97584.25;;;15.16;100.00
50774;BME280;36745;48.544;8.918;2023-05-08T00:04:30;97580.53;;;15.10;100.00
50774;BME280;36745;48.544;8.918;2023-05-08T00:07:50;97584.25;;;15.16;100.00
50774;BME280;36745;48.544;8.918;2023-05-08T00:11:12;97588.56;;;15.08;100.00
50774;BME280;36745;48.544;8.918;2023-05-08T00:14:32;97589.19;;;15.03;100.00
50774;BME280;36745;48.544;8.918;2023-05-08T00:17:51;97587.63;;;15.02;100.00
50774;BME280;36745;48.544;8.918;2023-05-08T00:21:11;97592.28;;;15.05;100.00
50774;BME280;36745;48.544;8.918;2023-05-08T00:24:31;97584.56;;;15.09;100.00
50774;BME280;36745;48.544;8.918;2023-05-08T00:27:50;97591.34;;;15.08;100.00
50774;BME280;36745;48.544;8.918;2023-05-08T00:31:10;97595.34;;;15.07;100.00
50774;BME280;36745;48.544;8.918;2023-05-08T00:34:30;97593.81;;;15.06;100.00
50774;BME280;36745;48.544;8.918;2023-05-08T00:37:50;97597.34;;;15.06;100.00
50774;BME280;36745;48.544;8.918;2023-05-08T00:41:10;97595.97;;;15.02;100.00
50774;BME280;36745;48.544;8.918;2023-05-08T00:44:30;97601.84;;;14.95;100.00
50774;BME280;36745;48.544;8.918;2023-05-08T00:47:50;97597.38;;;14.88;100.00
50774;BME280;36745;48.544;8.918;2023-05-08T00:51:10;97604.47;;;14.89;100.00
50774;BME280;36745;48.544;8.918;2023-05-08T00:54:30;97601.81;;;14.86;100.00
50774;BME280;36745;48.544;8.918;2023-05-08T00:57:50;97606.59;;;14.85;100.00
50774;BME280;36745;48.544;8.918;2023-05-08T01:01:11;97607.38;;;14.86;100.00
50774;BME280;36745;48.544;8.918;2023-05-08T01:04:33;97606.31;;;14.83;100.00
50774;BME280;36745;48.544;8.918;2023-05-08T01:07:53;97599.97;;;14.83;100.00
50774;BME280;36745;48.544;8.918;2023-05-08T01:15:05;97594.44;;;14.92;100.00
50774;BME280;36745;48.544;8.918;2023-05-08T01:18:37;97591.03;;;14.88;100.00
50774;BME280;36745;48.544;8.918;2023-05-08T01:33:07;97613.25;;;14.88;100.00
50774;BME280;36745;48.544;8.918;2023-05-08T01:43:29;97613.53;;;14.81;100.00
50774;BME280;36745;48.544;8.918;2023-05-08T01:46:49;97620.63;;;14.82;100.00
50774;BME280;36745;48.544;8.918;2023-05-08T01:50:17;97619.25;;;14.77;100.00
50774;BME280;36745;48.544;8.918;2023-05-08T01:53:40;97608.91;;;14.78;100.00
50774;BME280;36745;48.544;8.918;2023-05-08T01:57:02;97605.22;;;14.72;100.00
50774;BME280;36745;48.544;8.918;2023-05-08T02:00:23;97607.66;;;14.69;100.00
50774;BME280;36745;48.544;8.918;2023-05-08T02:03:44;97617.38;;;14.65;100.00
50774;BME280;36745;48.544;8.918;2023-05-08T02:07:05;97629.09;;;14.69;100.00
50774;BME280;36745;48.544;8.918;2023-05-08T02:10:26;97624.31;;;14.69;100.00
50774;BME280;36745;48.544;8.918;2023-05-08T02:13:47;97631.41;;;14.70;100.00
50774;BME280;36745;48.544;8.918;2023-05-08T02:17:08;97624.47;;;14.66;100.00
50774;BME280;36745;48.544;8.918;2023-05-08T02:20:30;97620.78;;;14.69;100.00
50774;BME280;36745;48.544;8.918;2023-05-08T02:23:51;97630.19;;;14.62;100.00
50774;BME280;36745;48.544;8.918;2023-05-08T02:27:13;97627.41;;;14.62;100.00
50774;BME280;36745;48.544;8.918;2023-05-08T02:30:34;97623.38;;;14.63;100.00
50774;BME280;36745;48.544;8.918;2023-05-08T02:33:54;97617.53;;;14.61;100.00
50774;BME280;36745;48.544;8.918;2023-05-08T02:37:17;97621.84;;;14.62;100.00
50774;BME280;36745;48.544;8.918;2023-05-08T02:40:41;97622.16;;;14.64;100.00
50774;BME280;36745;48.544;8.918;2023-05-08T02:44:03;97626.47;;;14.65;100.00
50774;BME280;36745;48.544;8.918;2023-05-08T02:47:26;97629.56;;;14.67;100.00
50774;BME280;36745;48.544;8.918;2023-05-08T02:50:59;97626.94;;;14.64;100.00
50774;BME280;36745;48.544;8.918;2023-05-08T02:58:09;97624.31;;;14.69;100.00
50774;BME280;36745;48.544;8.918;2023-05-08T03:01:37;97624.94;;;14.64;100.00
50774;BME280;36745;48.544;8.918;2023-05-08T03:05:02;97620.91;;;14.56;100.00
50774;BME280;36745;48.544;8.918;2023-05-08T03:08:29;97613.81;;;14.55;100.00
50774;BME280;36745;48.544;8.918;2023-05-08T03:11:54;97611.38;;;14.57;100.00
50774;BME280;36745;48.544;8.918;2023-05-08T03:15:25;97620.75;;;14.60;100.00
50774;BME280;36745;48.544;8.918;2023-05-08T03:18:55;97613.66;;;14.59;100.00
50774;BME280;36745;48.544;8.918;2023-05-08T03:22:18;97618.91;;;14.57;100.00
50774;BME280;36745;48.544;8.918;2023-05-08T03:25:40;97613.50;;;14.53;100.00
50774;BME280;36745;48.544;8.918;2023-05-08T03:29:01;97608.28;;;14.55;100.00
50774;BME280;36745;48.544;8.918;2023-05-08T03:32:23;97606.09;;;14.50;100.00
50774;BME280;36745;48.544;8.918;2023-05-08T03:35:44;97616.59;;;14.46;100.00
50774;BME280;36745;48.544;8.918;2023-05-08T03:39:04;97616.88;;;14.48;100.00
50774;BME280;36745;48.544;8.918;2023-05-08T03:42:25;97613.50;;;14.53;100.00
50774;BME280;36745;48.544;8.918;2023-05-08T03:45:45;97625.84;;;14.61;100.00
50774;BME280;36745;48.544;8.918;2023-05-08T03:49:07;97619.69;;;14.57;100.00
50774;BME280;36745;48.544;8.918;2023-05-08T03:52:27;97623.97;;;14.58;100.00
50774;BME280;36745;48.544;8.918;2023-05-08T03:55:48;97625.81;;;14.52;100.00
50774;BME280;36745;48.544;8.918;2023-05-08T03:59:25;97624.31;;;14.51;100.00
50774;BME280;36745;48.544;8.918;2023-05-08T04:02:56;97621.53;;;14.51;100.00
50774;BME280;36745;48.544;8.918;2023-05-08T04:06:33;97627.97;;;14.48;100.00
50774;BME280;36745;48.544;8.918;2023-05-08T04:13:27;97636.28;;;14.48;100.00
50774;BME280;36745;48.544;8.918;2023-05-08T04:16:51;97636.44;;;14.45;100.00
50774;BME280;36745;48.544;8.918;2023-05-08T04:20:14;97645.56;;;14.45;100.00
50774;BME280;36745;48.544;8.918;2023-05-08T04:23:35;97640.00;;;14.45;100.00
50774;BME280;36745;48.544;8.918;2023-05-08T04:26:57;97643.41;;;14.49;100.00
50774;BME280;36745;48.544;8.918;2023-05-08T04:30:17;97649.72;;;14.50;100.00
50774;BME280;36745;48.544;8.918;2023-05-08T04:33:37;97642.63;;;14.49;100.00
50774;BME280;36745;48.544;8.918;2023-05-08T04:36:57;97655.09;;;14.53;100.00
50774;BME280;36745;48.544;8.918;2023-05-08T04:40:17;97654.22;;;14.56;100.00
50774;BME280;36745;48.544;8.918;2023-05-08T04:43:37;97662.84;;;14.58;100.00
50774;BME280;36745;48.544;8.918;2023-05-08T04:46:56;97657.59;;;14.60;100.00
50774;BME280;36745;48.544;8.918;2023-05-08T04:50:16;97653.28;;;14.59;100.00
50774;BME280;36745;48.544;8.918;2023-05-08T04:53:36;97658.84;;;14.59;100.00
50774;BME280;36745;48.544;8.918;2023-05-08T04:56:56;97660.22;;;14.64;100.00
50774;BME280;36745;48.544;8.918;2023-05-08T05:00:16;97657.16;;;14.62;100.00
50774;BME280;36745;48.544;8.918;2023-05-08T05:03:35;97664.09;;;14.66;100.00
50774;BME280;36745;48.544;8.918;2023-05-08T05:06:55;97669.31;;;14.64;100.00
50774;BME280;36745;48.544;8.918;2023-05-08T05:10:15;97664.38;;;14.59;100.00
50774;BME280;36745;48.544;8.918;2023-05-08T05:13:35;97673.94;;;14.58;100.00
50774;BME280;36745;48.544;8.918;2023-05-08T05:16:55;97678.41;;;14.65;100.00
50774;BME280;36745;48.544;8.918;2023-05-08T05:20:14;97674.25;;;14.69;100.00
50774;BME280;36745;48.544;8.918;2023-05-08T05:23:39;97685.69;;;14.81;100.00
50774;BME280;36745;48.544;8.918;2023-05-08T05:27:03;97679.25;;;14.84;100.00
50774;BME280;36745;48.544;8.918;2023-05-08T05:30:24;97676.47;;;14.84;100.00
50774;BME280;36745;48.544;8.918;2023-05-08T05:33:47;97678.00;;;14.85;100.00
50774;BME280;36745;48.544;8.918;2023-05-08T05:37:20;97684.16;;;14.80;100.00
50774;BME280;36745;48.544;8.918;2023-05-08T05:40:40;97691.41;;;14.86;100.00
50774;BME280;36745;48.544;8.918;2023-05-08T05:43:59;97689.28;;;14.99;100.00
50774;BME280;36745;48.544;8.918;2023-05-08T05:47:19;97687.28;;;15.00;100.00
50774;BME280;36745;48.544;8.918;2023-05-08T05:50:39;97681.88;;;14.96;100.00
50774;BME280;36745;48.544;8.918;2023-05-08T05:53:59;97682.97;;;14.90;100.00
50774;BME280;36745;48.544;8.918;2023-05-08T05:57:18;97687.88;;;14.86;100.00
50774;BME280;36745;48.544;8.918;2023-05-08T06:00:38;97687.56;;;14.84;100.00
50774;BME280;36745;48.544;8.918;2023-05-08T06:03:58;97690.50;;;14.89;100.00
50774;BME280;36745;48.544;8.918;2023-05-08T06:07:18;97691.59;;;14.92;100.00
50774;BME280;36745;48.544;8.918;2023-05-08T06:10:39;97689.59;;;15.01;100.00
50774;BME280;36745;48.544;8.918;2023-05-08T06:14:00;97695.94;;;15.11;100.00
50774;BME280;36745;48.544;8.918;2023-05-08T06:17:20;97696.22;;;15.13;100.00
50774;BME280;36745;48.544;8.918;2023-05-08T06:20:39;97698.56;;;15.15;100.00
50774;BME280;36745;48.544;8.918;2023-05-08T06:23:59;97693.78;;;15.15;100.00
50774;BME280;36745;48.544;8.918;2023-05-08T06:27:20;97707.81;;;15.21;100.00
50774;BME280;36745;48.544;8.918;2023-05-08T06:30:39;97710.16;;;15.31;100.00
50774;BME280;36745;48.544;8.918;2023-05-08T06:33:59;97709.22;;;15.34;100.00
50774;BME280;36745;48.544;8.918;2023-05-08T06:37:19;97718.78;;;15.42;100.00
50774;BME280;36745;48.544;8.918;2023-05-08T06:40:43;97711.53;;;15.45;100.00
50774;BME280;36745;48.544;8.918;2023-05-08T06:44:02;97712.16;;;15.49;100.00
50774;BME280;36745;48.544;8.918;2023-05-08T06:47:22;97708.59;;;15.39;100.00
50774;BME280;36745;48.544;8.918;2023-05-08T06:50:42;97703.19;;;15.36;100.00
50774;BME280;36745;48.544;8.918;2023-05-08T06:54:01;97705.53;;;15.37;100.00
50774;BME280;36745;48.544;8.918;2023-05-08T06:57:23;97712.16;;;15.49;100.00
50774;BME280;36745;48.544;8.918;2023-05-08T07:00:45;97707.06;;;15.57;100.00
50774;BME280;36745;48.544;8.918;2023-05-08T07:04:05;97711.72;;;15.60;100.00
50774;BME280;36745;48.544;8.918;2023-05-08T07:07:25;97700.13;;;15.70;100.00
50774;BME280;36745;48.544;8.918;2023-05-08T07:10:44;97715.72;;;15.59;100.00
50774;BME280;36745;48.544;8.918;2023-05-08T07:14:04;97711.72;;;15.60;100.00
50774;BME280;36745;48.544;8.918;2023-05-08T07:17:24;97720.69;;;15.55;100.00
50774;BME280;36745;48.544;8.918;2023-05-08T07:20:45;97718.34;;;15.53;100.00
50774;BME280;36745;48.544;8.918;2023-05-08T07:24:05;97711.56;;;15.63;100.00
50774;BME280;36745;48.544;8.918;2023-05-08T07:27:25;97707.97;;;15.72;100.00
50774;BME280;36745;48.544;8.918;2023-05-08T07:30:45;97707.84;;;15.75;100.00
50774;BME280;36745;48.544;8.918;2023-05-08T07:34:04;97716.97;;;15.76;100.00
50774;BME280;36745;48.544;8.918;2023-05-08T07:37:25;97716.34;;;15.81;100.00
50774;BME280;36745;48.544;8.918;2023-05-08T07:40:45;97706.41;;;15.89;100.00
50774;BME280;36745;48.544;8.918;2023-05-08T07:44:05;97711.47;;;16.18;100.00
50774;BME280;36745;48.544;8.918;2023-05-08T07:47:25;97720.03;;;16.38;100.00
50774;BME280;36745;48.544;8.918;2023-05-08T07:50:44;97714.66;;;16.34;100.00
50774;BME280;36745;48.544;8.918;2023-05-08T07:54:04;97716.19;;;16.35;100.00
50774;BME280;36745;48.544;8.918;2023-05-08T07:57:24;97719.56;;;16.40;100.00
50774;BME280;36745;48.544;8.918;2023-05-08T08:00:43;97718.00;;;16.48;100.00
50774;BME280;36745;48.544;8.918;2023-05-08T08:04:04;97719.19;;;16.56;100.00
50774;BME280;36745;48.544;8.918;2023-05-08T08:07:23;97712.72;;;16.59;100.00
50774;BME280;36745;48.544;8.918;2023-05-08T08:10:43;97720.13;;;16.53;100.00
50774;BME280;36745;48.544;8.918;2023-05-08T08:14:03;97711.50;;;16.51;100.00
50774;BME280;36745;48.544;8.918;2023-05-08T08:17:22;97718.88;;;16.54;100.00
50774;BME280;36745;48.544;8.918;2023-05-08T08:20:42;97726.06;;;16.46;100.00
50774;BME280;36745;48.544;8.918;2023-05-08T08:24:02;97725.91;;;16.40;100.00
50774;BME280;36745;48.544;8.918;2023-05-08T08:27:22;97730.41;;;16.37;100.00
50774;BME280;36745;48.544;8.918;2023-05-08T08:30:42;97728.66;;;16.49;100.00
50774;BME280;36745;48.544;8.918;2023-05-08T08:34:02;97738.56;;;16.41;100.00
50774;BME280;36745;48.544;8.918;2023-05-08T08:37:21;97737.19;;;16.36;100.00
50774;BME280;36745;48.544;8.918;2023-05-08T08:40:42;97729.69;;;16.10;100.00
50774;BME280;36745;48.544;8.918;2023-05-08T08:44:02;97722.78;;;15.96;100.00
50774;BME280;36745;48.544;8.918;2023-05-08T08:47:26;97729.75;;;15.82;100.00
50774;BME280;36745;48.544;8.918;2023-05-08T08:50:49;97730.09;;;15.75;100.00
50774;BME280;36745;48.544;8.918;2023-05-08T08:54:13;97738.25;;;15.79;100.00
50774;BME280;36745;48.544;8.918;2023-05-08T08:57:37;97734.53;;;15.82;100.00
50774;BME280;36745;48.544;8.918;2023-05-08T09:00:59;97736.09;;;15.83;100.00
50774;BME280;36745;48.544;8.918;2023-05-08T09:04:19;97740.25;;;15.78;100.00
50774;BME280;36745;48.544;8.918;2023-05-08T09:07:39;97738.22;;;15.88;100.00
50774;BME280;36745;48.544;8.918;2023-05-08T09:11:01;97729.91;;;15.79;100.00
50774;BME280;36745;48.544;8.918;2023-05-08T09:14:21;97736.09;;;15.74;100.00
50774;BME280;36745;48.544;8.918;2023-05-08T09:17:44;97737.16;;;15.76;100.00
50774;BME280;36745;48.544;8.918;2023-05-08T09:21:07;97737.94;;;15.77;100.00
50774;BME280;36745;48.544;8.918;2023-05-08T09:24:53;97742.28;;;15.69;100.00
50774;BME280;36745;48.544;8.918;2023-05-08T09:28:24;97747.22;;;15.65;100.00
50774;BME280;36745;48.544;8.918;2023-05-08T09:31:45;97741.66;;;15.65;100.00
50774;BME280;36745;48.544;8.918;2023-05-08T09:35:07;97744.44;;;15.65;100.00
50774;BME280;36745;48.544;8.918;2023-05-08T09:42:15;97751.22;;;15.73;100.00
50774;BME280;36745;48.544;8.918;2023-05-08T09:45:35;97756.50;;;15.71;100.00
50774;BME280;36745;48.544;8.918;2023-05-08T09:48:59;97758.78;;;15.72;100.00
50774;BME280;36745;48.544;8.918;2023-05-08T09:52:19;97756.94;;;15.78;100.00
50774;BME280;36745;48.544;8.918;2023-05-08T09:55:46;97757.09;;;15.75;100.00
50774;BME280;36745;48.544;8.918;2023-05-08T09:59:26;97755.25;;;15.81;100.00
50774;BME280;36745;48.544;8.918;2023-05-08T10:03:12;97757.25;;;15.89;100.00
50774;BME280;36745;48.544;8.918;2023-05-08T10:06:32;97763.41;;;15.93;100.00
50774;BME280;36745;48.544;8.918;2023-05-08T10:10:05;97755.84;;;15.85;100.00
50774;BME280;36745;48.544;8.918;2023-05-08T10:13:25;97761.72;;;15.78;100.00
50774;BME280;36745;48.544;8.918;2023-05-08T10:16:46;97754.31;;;15.66;100.00
50774;BME280;36745;48.544;8.918;2023-05-08T10:20:07;97762.34;;;15.64;100.00
50774;BME280;36745;48.544;8.918;2023-05-08T10:23:28;97757.72;;;15.61;100.00
50774;BME280;36745;48.544;8.918;2023-05-08T10:30:24;97757.88;;;15.84;100.00
50774;BME280;36745;48.544;8.918;2023-05-08T10:33:44;97762.81;;;15.89;100.00
50774;BME280;36745;48.544;8.918;2023-05-08T10:37:08;97755.53;;;16.01;100.00
50774;BME280;36745;48.544;8.918;2023-05-08T10:40:28;97755.69;;;16.07;100.00
50774;BME280;36745;48.544;8.918;2023-05-08T10:43:49;97764.16;;;16.12;100.00
50774;BME280;36745;48.544;8.918;2023-05-08T10:54:24;97752.22;;;16.30;100.00
50774;BME280;36745;48.544;8.918;2023-05-08T11:01:27;97741.84;;;16.30;100.00
50774;BME280;36745;48.544;8.918;2023-05-08T11:04:47;97741.56;;;16.28;100.00
50774;BME280;36745;48.544;8.918;2023-05-08T11:08:13;97741.25;;;16.26;100.00
50774;BME280;36745;48.544;8.918;2023-05-08T11:11:37;97741.06;;;16.39;100.00
50774;BME280;36745;48.544;8.918;2023-05-08T11:15:01;97742.13;;;16.42;100.00
50774;BME280;36745;48.544;8.918;2023-05-08T11:18:21;97735.31;;;16.52;100.00
50774;BME280;36745;48.544;8.918;2023-05-08T11:25:43;97737.75;;;16.68;100.00
50774;BME280;36745;48.544;8.918;2023-05-08T11:29:15;97730.88;;;16.78;100.00
50774;BME280;36745;48.544;8.918;2023-05-08T11:36:23;97730.00;;;16.63;100.00
50774;BME280;36745;48.544;8.918;2023-05-08T11:39:44;97724.44;;;16.63;100.00
50774;BME280;36745;48.544;8.918;2023-05-08T11:46:55;97719.38;;;16.85;100.00
50774;BME280;36745;48.544;8.918;2023-05-08T11:50:15;97722.41;;;16.72;100.00
50774;BME280;36745;48.544;8.918;2023-05-08T11:53:36;97724.31;;;16.48;100.00
50774;BME280;36745;48.544;8.918;2023-05-08T11:56:56;97712.28;;;16.51;100.00
50774;BME280;36745;48.544;8.918;2023-05-08T12:00:16;97723.47;;;16.75;100.00
50774;BME280;36745;48.544;8.918;2023-05-08T12:03:35;97716.66;;;16.76;100.00
50774;BME280;36745;48.544;8.918;2023-05-08T12:06:56;97722.53;;;16.78;100.00
50774;BME280;36745;48.544;8.918;2023-05-08T12:10:16;97724.94;;;16.85;100.00
50774;BME280;36745;48.544;8.918;2023-05-08T12:13:36;97715.78;;;16.94;100.00
50774;BME280;36745;48.544;8.918;2023-05-08T12:16:56;97717.03;;;17.16;100.00
50774;BME280;36745;48.544;8.918;2023-05-08T12:20:17;97716.63;;;17.33;100.00
50774;BME280;36745;48.544;8.918;2023-05-08T12:23:36;97707.50;;;17.47;100.00
50774;BME280;36745;48.544;8.918;2023-05-08T12:26:57;97720.13;;;17.57;100.00
50774;BME280;36745;48.544;8.918;2023-05-08T12:30:17;97713.72;;;17.66;100.00
50774;BME280;36745;48.544;8.918;2023-05-08T12:33:36;97715.00;;;17.41;100.00
50774;BME280;36745;48.544;8.918;2023-05-08T12:37:01;97721.03;;;17.63;100.00
50774;BME280;36745;48.544;8.918;2023-05-08T12:40:26;97722.91;;;17.81;100.00
50774;BME280;36745;48.544;8.918;2023-05-08T12:43:46;97720.22;;;17.86;100.00
50774;BME280;36745;48.544;8.918;2023-05-08T12:47:07;97727.78;;;17.71;100.00
50774;BME280;36745;48.544;8.918;2023-05-08T12:50:27;97724.31;;;17.76;100.00
50774;BME280;36745;48.544;8.918;2023-05-08T12:53:49;97719.75;;;18.02;100.00
50774;BME280;36745;48.544;8.918;2023-05-08T13:00:41;97716.91;;;17.73;100.00
50774;BME280;36745;48.544;8.918;2023-05-08T13:04:01;97714.53;;;17.95;100.00
50774;BME280;36745;48.544;8.918;2023-05-08T13:07:21;97717.91;;;18.29;100.00
50774;BME280;36745;48.544;8.918;2023-05-08T13:10:54;97709.91;;;18.51;100.00
50774;BME280;36745;48.544;8.918;2023-05-08T13:14:14;97704.41;;;18.42;100.00
50774;BME280;36745;48.544;8.918;2023-05-08T13:17:34;97704.91;;;18.55;100.00
50774;BME280;36745;48.544;8.918;2023-05-08T13:20:54;97704.88;;;18.70;100.00
50774;BME280;36745;48.544;8.918;2023-05-08T13:24:15;97705.06;;;18.66;100.00
50774;BME280;36745;48.544;8.918;2023-05-08T13:27:35;97707.56;;;18.64;100.00
50774;BME280;36745;48.544;8.918;2023-05-08T13:30:54;97704.13;;;18.90;100.00
50774;BME280;36745;48.544;8.918;2023-05-08T13:34:14;97693.25;;;18.92;100.00
50774;BME280;36745;48.544;8.918;2023-05-08T13:37:34;97679.22;;;19.06;100.00
50774;BME280;36745;48.544;8.918;2023-05-08T13:40:54;97676.63;;;19.03;98.46
50774;BME280;36745;48.544;8.918;2023-05-08T13:44:14;97688.28;;;18.81;96.55
50774;BME280;36745;48.544;8.918;2023-05-08T13:47:34;97680.38;;;18.79;97.84
50774;BME280;36745;48.544;8.918;2023-05-08T13:50:53;97674.75;;;18.94;98.21
50774;BME280;36745;48.544;8.918;2023-05-08T13:54:13;97677.19;;;19.07;98.29
50774;BME280;36745;48.544;8.918;2023-05-08T13:57:33;97673.06;;;19.02;97.71
50774;BME280;36745;48.544;8.918;2023-05-08T14:00:53;97677.88;;;18.81;95.19
50774;BME280;36745;48.544;8.918;2023-05-08T14:04:13;97673.34;;;18.34;95.01
50774;BME280;36745;48.544;8.918;2023-05-08T14:07:34;97672.00;;;18.30;95.46
50774;BME280;36745;48.544;8.918;2023-05-08T14:10:54;97670.47;;;18.29;95.32
50774;BME280;36745;48.544;8.918;2023-05-08T14:14:13;97662.47;;;18.22;95.76
50774;BME280;36745;48.544;8.918;2023-05-08T14:17:33;97673.66;;;18.22;96.16
50774;BME280;36745;48.544;8.918;2023-05-08T14:20:53;97671.25;;;18.29;97.06
50774;BME280;36745;48.544;8.918;2023-05-08T14:24:13;97670.81;;;18.36;97.50
50774;BME280;36745;48.544;8.918;2023-05-08T14:27:33;97668.31;;;18.38;97.58
50774;BME280;36745;48.544;8.918;2023-05-08T14:30:52;97670.81;;;18.36;96.12
50774;BME280;36745;48.544;8.918;2023-05-08T14:34:12;97667.16;;;18.30;95.52
50774;BME280;36745;48.544;8.918;2023-05-08T14:37:32;97669.97;;;18.30;96.28
50774;BME280;36745;48.544;8.918;2023-05-08T14:40:52;97670.41;;;18.58;97.52
50774;BME280;36745;48.544;8.918;2023-05-08T14:44:15;97660.56;;;18.77;97.22
50774;BME280;36745;48.544;8.918;2023-05-08T14:47:35;97660.25;;;18.75;95.66
50774;BME280;36745;48.544;8.918;2023-05-08T14:50:55;97655.66;;;18.72;94.26
50774;BME280;36745;48.544;8.918;2023-05-08T14:54:15;97661.59;;;18.45;93.53
50774;BME280;36745;48.544;8.918;2023-05-08T14:57:34;97657.44;;;18.55;95.50
50774;BME280;36745;48.544;8.918;2023-05-08T15:00:54;97651.88;;;18.75;96.07
50774;BME280;36745;48.544;8.918;2023-05-08T15:04:14;97659.16;;;18.88;96.38
50774;BME280;36745;48.544;8.918;2023-05-08T15:07:35;97651.59;;;18.73;94.39
50774;BME280;36745;48.544;8.918;2023-05-08T15:10:54;97652.97;;;18.63;95.27
50774;BME280;36745;48.544;8.918;2023-05-08T15:14:14;97646.38;;;18.46;94.26
50774;BME280;36745;48.544;8.918;2023-05-08T15:17:34;97653.72;;;18.29;95.17
50774;BME280;36745;48.544;8.918;2023-05-08T15:20:54;97655.81;;;18.34;96.06
50774;BME280;36745;48.544;8.918;2023-05-08T15:24:14;97653.44;;;18.27;94.54
50774;BME280;36745;48.544;8.918;2023-05-08T15:27:34;97648.28;;;17.90;94.34
50774;BME280;36745;48.544;8.918;2023-05-08T15:30:54;97650.09;;;17.93;98.00
50774;BME280;36745;48.544;8.918;2023-05-08T15:34:14;97648.91;;;18.15;99.05
50774;BME280;36745;48.544;8.918;2023-05-08T15:37:34;97651.03;;;18.20;99.31
50774;BME280;36745;48.544;8.918;2023-05-08T15:40:55;97655.47;;;18.12;99.37
50774;BME280;36745;48.544;8.918;2023-05-08T15:44:17;97662.00;;;18.09;99.11
50774;BME280;36745;48.544;8.918;2023-05-08T15:47:37;97663.94;;;18.02;99.76
50774;BME280;36745;48.544;8.918;2023-05-08T15:50:58;97668.38;;;17.94;100.00
50774;BME280;36745;48.544;8.918;2023-05-08T15:54:18;97670.13;;;17.92;100.00
50774;BME280;36745;48.544;8.918;2023-05-08T15:57:37;97671.06;;;17.89;100.00
50774;BME280;36745;48.544;8.918;2023-05-08T16:00:57;97666.44;;;17.86;100.00
50774;BME280;36745;48.544;8.918;2023-05-08T16:04:17;97673.19;;;17.79;100.00
50774;BME280;36745;48.544;8.918;2023-05-08T16:07:37;97668.53;;;17.76;100.00
50774;BME280;36745;48.544;8.918;2023-05-08T16:10:57;97665.13;;;17.81;100.00
50774;BME280;36745;48.544;8.918;2023-05-08T16:14:16;97679.81;;;17.96;100.00
50774;BME280;36745;48.544;8.918;2023-05-08T16:17:36;97679.53;;;17.94;100.00
50774;BME280;36745;48.544;8.918;2023-05-08T16:20:56;97680.78;;;17.93;100.00
50774;BME280;36745;48.544;8.918;2023-05-08T16:24:16;97687.59;;;17.92;100.00
50774;BME280;36745;48.544;8.918;2023-05-08T16:27:36;97693.84;;;17.73;100.00
50774;BME280;36745;48.544;8.918;2023-05-08T16:30:55;97698.13;;;17.59;100.00
50774;BME280;36745;48.544;8.918;2023-05-08T16:34:15;97692.63;;;17.50;100.00
50774;BME280;36745;48.544;8.918;2023-05-08T16:37:35;97690.94;;;17.29;100.00
50774;BME280;36745;48.544;8.918;2023-05-08T16:41:02;97685.75;;;17.22;100.00
50774;BME280;36745;48.544;8.918;2023-05-08T16:44:22;97682.84;;;17.16;100.00
50774;BME280;36745;48.544;8.918;2023-05-08T16:47:42;97680.53;;;17.14;100.00
50774;BME280;36745;48.544;8.918;2023-05-08T16:51:02;97678.03;;;17.16;100.00
50774;BME280;36745;48.544;8.918;2023-05-08T16:54:21;97682.66;;;17.19;100.00
50774;BME280;36745;48.544;8.918;2023-05-08T16:57:41;97689.81;;;17.11;100.00
50774;BME280;36745;48.544;8.918;2023-05-08T17:01:01;97698.81;;;17.06;100.00
50774;BME280;36745;48.544;8.918;2023-05-08T17:04:21;97707.72;;;16.96;100.00
50774;BME280;36745;48.544;8.918;2023-05-08T17:07:41;97701.84;;;16.70;100.00
50774;BME280;36745;48.544;8.918;2023-05-08T17:11:00;97710.53;;;16.54;100.00
50774;BME280;36745;48.544;8.918;2023-05-08T17:14:20;97711.50;;;16.51;100.00
50774;BME280;36745;48.544;8.918;2023-05-08T17:17:40;97719.88;;;16.42;100.00
50774;BME280;36745;48.544;8.918;2023-05-08T17:21:00;97729.53;;;16.22;100.00
50774;BME280;36745;48.544;8.918;2023-05-08T17:24:19;97729.84;;;16.15;100.00
50774;BME280;36745;48.544;8.918;2023-05-08T17:27:39;97730.31;;;16.14;100.00
50774;BME280;36745;48.544;8.918;2023-05-08T17:30:59;97733.88;;;16.05;100.00
50774;BME280;36745;48.544;8.918;2023-05-08T17:34:19;97732.66;;;16.06;100.00
50774;BME280;36745;48.544;8.918;2023-05-08T17:37:39;97737.25;;;16.09;100.00
50774;BME280;36745;48.544;8.918;2023-05-08T17:40:59;97732.19;;;16.08;100.00
50774;BME280;36745;48.544;8.918;2023-05-08T17:44:19;97727.88;;;16.07;100.00
50774;BME280;36745;48.544;8.918;2023-05-08T17:47:39;97733.72;;;16.09;100.00
50774;BME280;36745;48.544;8.918;2023-05-08T17:51:00;97740.38;;;16.11;100.00
50774;BME280;36745;48.544;8.918;2023-05-08T17:54:20;97740.97;;;16.15;100.00
50774;BME280;36745;48.544;8.918;2023-05-08T17:57:40;97741.44;;;16.05;100.00
50774;BME280;36745;48.544;8.918;2023-05-08T18:01:00;97734.50;;;16.00;100.00
50774;BME280;36745;48.544;8.918;2023-05-08T18:04:20;97730.34;;;15.95;100.00
50774;BME280;36745;48.544;8.918;2023-05-08T18:07:40;97732.53;;;15.91;100.00
50774;BME280;36745;48.544;8.918;2023-05-08T18:11:00;97735.16;;;15.86;100.00
50774;BME280;36745;48.544;8.918;2023-05-08T18:14:20;97741.63;;;15.83;100.00
50774;BME280;36745;48.544;8.918;2023-05-08T18:17:39;97737.78;;;15.80;100.00
50774;BME280;36745;48.544;8.918;2023-05-08T18:20:59;97733.78;;;15.81;100.00
50774;BME280;36745;48.544;8.918;2023-05-08T18:24:19;97743.19;;;15.84;100.00
50774;BME280;36745;48.544;8.918;2023-05-08T18:27:39;97748.75;;;15.75;100.00
50774;BME280;36745;48.544;8.918;2023-05-08T18:30:59;97747.84;;;15.69;100.00
50774;BME280;36745;48.544;8.918;2023-05-08T18:34:19;97748.75;;;15.66;100.00